BMC weather

Brigham City Regional Airport
Brigham City, Utah, United States

Public forecast

Using degrees Fahrenheit for public forecast. Weather courtesy of forecast.io.

Current aviation weather report (METAR) for Brigham City Regional Airport

Retrieved 2019/10/15 21:30 UTC (0 seconds ago):

KBMC 152130Z AUTO 00000KT 10SM CLR 19/M11 A3023 RMK AO1 T01861109

Closest aviation forecast (TAF) to Brigham City Regional Airport

Closest forecast is Logan-Cache Airport, 17.2 nm (31.8 km) NNE. Retrieved 2019/10/15 18:22 UTC (3 hours ago):

TAF KLGU 151720Z 1518/1618 VRB03KT P6SM SKC